createdAt,value
2023-04-23T05:02:54.607Z,32.70
2023-04-23T05:05:23.160Z,33.88
2023-04-23T05:07:50.169Z,33.50
2023-04-23T05:10:17.606Z,35.15
2023-04-23T05:12:44.183Z,32.60
2023-04-23T05:15:15.764Z,31.90
2023-04-23T05:17:42.700Z,36.38
2023-04-23T05:20:11.202Z,32.50
2023-04-23T05:22:42.080Z,36.33
2023-04-23T05:25:11.951Z,34.70
2023-04-23T05:27:39.073Z,33.08
2023-04-23T05:30:08.486Z,32.38
2023-04-23T05:32:36.091Z,34.33
2023-04-23T05:35:04.254Z,32.92
2023-04-23T05:37:31.146Z,33.08
2023-04-23T05:40:01.326Z,34.70
2023-04-23T05:42:28.403Z,33.95
2023-04-23T05:44:55.612Z,33.40
2023-04-23T05:47:22.256Z,34.05
2023-04-23T05:49:49.761Z,32.80
2023-04-23T05:52:16.501Z,34.53
2023-04-23T05:54:43.921Z,34.08
2023-04-23T05:57:12.081Z,36.92
2023-04-23T05:59:39.317Z,38.00
2023-04-23T06:02:06.209Z,34.72
2023-04-23T06:05:18.097Z,36.03
2023-04-23T06:07:55.374Z,34.33
2023-04-23T06:10:22.611Z,36.72
2023-04-23T06:12:49.252Z,35.03
2023-04-23T06:15:16.546Z,35.88
2023-04-23T06:17:43.204Z,38.78
2023-04-23T06:20:12.056Z,32.83
2023-04-23T06:22:38.889Z,36.85
2023-04-23T06:25:06.427Z,35.38
2023-04-23T06:27:33.806Z,35.47
2023-04-23T06:30:08.831Z,37.67
2023-04-23T06:32:35.989Z,34.88
2023-04-23T06:35:04.719Z,34.47
2023-04-23T06:37:31.726Z,34.53
2023-04-23T06:39:59.977Z,34.78
2023-04-23T06:42:26.761Z,32.42
2023-04-23T06:45:16.489Z,34.55
2023-04-23T06:47:43.204Z,34.33
2023-04-23T06:50:10.538Z,31.73
2023-04-23T06:52:37.282Z,30.65
2023-04-23T06:55:05.072Z,29.05
2023-04-23T06:57:31.795Z,27.67
2023-04-23T06:59:59.311Z,26.77
2023-04-23T07:02:31.775Z,25.92
2023-04-23T07:04:59.151Z,25.13
2023-04-23T07:07:26.065Z,22.90
2023-04-23T07:09:59.664Z,24.13
2023-04-23T07:12:31.365Z,21.55
2023-04-23T07:14:58.907Z,22.73
2023-04-23T07:17:25.953Z,20.45
2023-04-23T07:19:53.797Z,19.63
2023-04-23T07:22:20.722Z,21.58
2023-04-23T07:24:49.932Z,21.05
2023-04-23T07:27:16.772Z,17.83
2023-04-23T07:29:44.708Z,16.63
2023-04-23T07:32:12.118Z,16.95
2023-04-23T07:34:39.934Z,17.45
2023-04-23T07:37:07.183Z,11.30
2023-04-23T07:39:34.966Z,10.35
2023-04-23T07:42:02.194Z,12.50
2023-04-23T07:44:29.759Z,13.63
2023-04-23T07:46:57.380Z,11.05
2023-04-23T07:49:27.471Z,11.45
2023-04-23T07:51:56.142Z,11.50
2023-04-23T07:54:27.550Z,11.70
2023-04-23T07:56:54.822Z,10.98
2023-04-23T07:59:23.427Z,10.40
2023-04-23T08:01:50.567Z,10.95
2023-04-23T08:04:23.345Z,10.70
2023-04-23T08:06:53.802Z,11.05
2023-04-23T08:09:25.512Z,11.55
2023-04-23T08:11:56.435Z,12.55
2023-04-23T08:14:24.448Z,11.82
2023-04-23T08:16:53.944Z,13.75
2023-04-23T08:19:27.014Z,12.60
2023-04-23T08:21:56.073Z,13.80
2023-04-23T08:24:27.747Z,14.93
2023-04-23T08:27:06.953Z,13.70
2023-04-23T08:29:37.468Z,15.57
2023-04-23T08:32:19.771Z,14.70
2023-04-23T08:34:56.714Z,14.65
2023-04-23T08:37:30.934Z,15.10
2023-04-23T08:39:59.456Z,14.43
2023-04-23T08:42:44.410Z,14.80
2023-04-23T08:45:12.522Z,13.95
2023-04-23T08:47:43.503Z,12.70
2023-04-23T08:50:14.360Z,13.20
2023-04-23T08:52:49.285Z,12.32
2023-04-23T08:55:18.841Z,11.77
2023-04-23T08:57:49.331Z,11.48
2023-04-23T09:00:19.860Z,11.13
2023-04-23T09:02:50.698Z,10.73
2023-04-23T09:05:33.208Z,9.60
2023-04-23T09:08:04.225Z,9.35
2023-04-23T09:10:31.626Z,9.13
2023-04-23T09:12:59.005Z,8.57
2023-04-23T09:15:25.925Z,8.55
2023-04-23T09:17:58.433Z,8.27
2023-04-23T09:20:30.969Z,9.25
2023-04-23T09:23:08.172Z,8.63
2023-04-23T09:25:38.450Z,7.15
2023-04-23T09:28:09.352Z,7.85
2023-04-23T09:30:46.137Z,6.95
2023-04-23T09:33:14.082Z,6.90
2023-04-23T09:35:43.104Z,6.70
2023-04-23T09:38:10.971Z,7.30
2023-04-23T09:40:38.719Z,6.75
2023-04-23T09:43:07.704Z,6.65
2023-04-23T09:45:35.504Z,6.50
2023-04-23T09:48:02.867Z,6.47
2023-04-23T09:50:38.978Z,5.70
2023-04-23T09:53:08.648Z,5.60
2023-04-23T09:55:38.786Z,5.45
2023-04-23T09:58:07.849Z,6.70
2023-04-23T10:00:37.485Z,6.07
2023-04-23T10:03:07.035Z,6.03
2023-04-23T10:08:14.235Z,5.18
2023-04-23T10:10:55.122Z,4.90
2023-04-23T10:13:28.251Z,5.30
2023-04-23T10:15:57.760Z,4.88
2023-04-23T10:18:31.565Z,4.95
2023-04-23T10:20:58.401Z,5.22
2023-04-23T10:23:25.778Z,5.22
2023-04-23T10:25:56.181Z,5.15
2023-04-23T10:28:29.006Z,5.07
2023-04-23T10:30:57.367Z,4.55
2023-04-23T10:33:31.873Z,3.58
2023-04-23T10:36:00.790Z,3.42
2023-04-23T10:38:28.318Z,4.70
2023-04-23T10:40:59.073Z,4.43
2023-04-23T10:43:25.885Z,4.50
2023-04-23T10:45:54.128Z,5.10
2023-04-23T10:48:21.584Z,5.40
2023-04-23T10:51:09.733Z,5.25
2023-04-23T10:53:45.583Z,4.95
2023-04-23T10:56:13.119Z,4.28
2023-04-23T10:58:51.268Z,4.63
2023-04-23T11:01:19.432Z,5.50
2023-04-23T11:03:47.675Z,4.30
2023-04-23T11:06:20.690Z,4.35
2023-04-23T11:08:55.028Z,4.03
2023-04-23T11:11:41.742Z,4.43
2023-04-23T11:14:15.637Z,4.05
2023-04-23T11:16:43.168Z,1.98
2023-04-23T11:19:16.638Z,1.40
2023-04-23T11:21:59.846Z,1.52
2023-04-23T11:24:37.470Z,1.75
2023-04-23T11:27:11.807Z,1.48
2023-04-23T11:29:40.629Z,1.30
2023-04-23T11:32:13.382Z,1.20
2023-04-23T11:34:43.158Z,1.10
2023-04-23T11:37:18.283Z,1.10
2023-04-23T11:39:47.419Z,1.58
2023-04-23T11:42:15.767Z,1.95
2023-04-23T11:44:44.087Z,2.00
2023-04-23T11:47:14.243Z,1.30
2023-04-23T11:49:43.399Z,1.60
2023-04-23T11:52:12.195Z,1.38
2023-04-23T11:54:41.186Z,1.42
2023-04-23T11:57:08.834Z,1.88
2023-04-23T11:59:35.563Z,1.38
2023-04-23T12:02:02.863Z,2.10
2023-04-23T12:04:31.690Z,1.95
2023-04-23T12:07:00.146Z,1.60
2023-04-23T12:09:28.786Z,2.20
2023-04-23T12:11:58.575Z,1.98
2023-04-23T12:14:28.843Z,1.75
2023-04-23T12:16:57.336Z,2.15
2023-04-23T12:19:29.149Z,1.98
2023-04-23T12:22:00.799Z,1.58
2023-04-23T12:24:29.517Z,1.70
2023-04-23T12:27:03.173Z,1.45
2023-04-23T12:29:31.594Z,2.08
2023-04-23T12:32:00.606Z,1.60
2023-04-23T12:34:27.401Z,1.73
2023-04-23T12:36:56.672Z,2.22
2023-04-23T12:39:34.381Z,1.85
2023-04-23T12:42:05.491Z,1.23
2023-04-23T12:44:34.696Z,2.38
2023-04-23T12:47:05.073Z,1.73
2023-04-23T12:49:32.548Z,1.75
2023-04-23T12:52:01.888Z,1.70
2023-04-23T12:54:39.310Z,1.73
2023-04-23T12:57:10.218Z,1.48
2023-04-23T12:59:37.372Z,1.77
2023-04-23T13:02:07.588Z,1.90
2023-04-23T13:04:37.408Z,1.60
2023-04-23T13:07:04.847Z,2.08
2023-04-23T13:09:31.592Z,1.70
2023-04-23T13:12:00.814Z,1.48
2023-04-23T13:14:28.017Z,1.92
2023-04-23T13:16:55.330Z,1.98
2023-04-23T13:19:22.017Z,1.15
2023-04-23T13:21:49.581Z,1.42
2023-04-23T13:24:16.340Z,1.10
2023-04-23T13:26:43.608Z,1.25
2023-04-23T13:29:10.390Z,0.98
2023-04-23T13:31:37.703Z,0.90
2023-04-23T13:34:04.678Z,0.88
2023-04-23T13:36:32.281Z,0.90
2023-04-23T13:38:59.156Z,0.90
2023-04-23T13:41:26.472Z,0.70
2023-04-23T13:43:53.077Z,0.80
2023-04-23T13:46:20.905Z,1.08
2023-04-23T13:48:48.893Z,1.17
2023-04-23T13:51:33.066Z,1.10
2023-04-23T13:54:06.012Z,0.90
2023-04-23T13:56:33.564Z,0.90
2023-04-23T13:59:08.396Z,0.95
2023-04-23T14:01:47.587Z,1.00
2023-04-23T14:04:14.312Z,1.10
2023-04-23T14:06:41.673Z,1.33
2023-04-23T14:09:08.403Z,1.20
2023-04-23T14:11:36.227Z,1.08
2023-04-23T14:14:02.926Z,1.42
2023-04-23T14:16:30.288Z,1.73
2023-04-23T14:18:57.105Z,1.10
2023-04-23T14:21:24.400Z,1.20
2023-04-23T14:24:03.324Z,1.08
2023-04-23T14:26:47.930Z,1.27
2023-04-23T14:29:45.731Z,1.45
2023-04-23T14:32:13.897Z,1.20
2023-04-23T14:34:41.498Z,1.33
2023-04-23T14:40:00.928Z,1.23
2023-04-23T14:42:29.844Z,1.10
2023-04-23T14:45:00.564Z,1.40
2023-04-23T14:47:27.144Z,1.65
2023-04-23T14:49:54.561Z,1.25
2023-04-23T14:52:21.591Z,1.40
2023-04-23T14:54:48.956Z,1.27
2023-04-23T14:57:15.749Z,1.15
2023-04-23T14:59:44.546Z,1.45
2023-04-23T15:02:12.230Z,1.20
2023-04-23T15:04:39.764Z,0.98
2023-04-23T15:07:06.390Z,1.45
2023-04-23T15:09:34.044Z,1.73
2023-04-23T15:12:00.826Z,1.58
2023-04-23T15:14:35.490Z,1.33
2023-04-23T15:17:02.220Z,1.30
2023-04-23T15:19:31.426Z,1.27
2023-04-23T15:21:58.530Z,1.52
2023-04-23T15:24:25.782Z,1.13
2023-04-23T15:26:54.487Z,1.40
2023-04-23T15:29:21.859Z,1.58
2023-04-23T15:31:49.446Z,1.33
2023-04-23T15:34:16.394Z,1.33
2023-04-23T15:36:42.982Z,1.42
2023-04-23T15:39:10.207Z,2.20
2023-04-23T15:41:40.330Z,2.08
2023-04-23T15:44:12.218Z,2.10
2023-04-23T15:46:39.238Z,1.58
2023-04-23T15:49:06.554Z,2.40
2023-04-23T15:51:33.198Z,2.10
2023-04-23T15:54:02.397Z,1.73
2023-04-23T15:56:29.074Z,2.47
2023-04-23T15:58:56.027Z,2.83
2023-04-23T16:01:24.206Z,2.10
2023-04-23T16:04:08.538Z,2.42
2023-04-23T16:06:37.052Z,1.98
2023-04-23T16:09:07.330Z,2.05
2023-04-23T16:11:38.019Z,1.85
2023-04-23T16:14:05.800Z,2.25
2023-04-23T16:16:32.696Z,1.85
2023-04-23T16:18:59.939Z,2.00
2023-04-23T16:21:28.010Z,1.90
2023-04-23T16:23:55.007Z,2.45
2023-04-23T16:26:21.650Z,2.22
2023-04-23T16:28:52.422Z,2.15
2023-04-23T16:31:32.431Z,2.28
2023-04-23T16:33:59.541Z,1.90
2023-04-23T16:36:26.541Z,2.40
2023-04-23T16:38:53.786Z,2.30
2023-04-23T16:41:20.430Z,2.20
2023-04-23T16:43:47.596Z,2.45
2023-04-23T16:46:15.987Z,2.53
2023-04-23T16:48:46.021Z,2.20
2023-04-23T16:51:13.306Z,2.03
2023-04-23T16:53:39.886Z,2.13
2023-04-23T16:56:07.197Z,2.08
2023-04-23T16:58:35.277Z,2.15
2023-04-23T17:01:02.564Z,1.83
2023-04-23T17:03:29.863Z,2.15
2023-04-23T17:06:28.664Z,2.38
2023-04-23T17:08:58.040Z,1.85
2023-04-23T17:11:26.167Z,1.77
2023-04-23T17:13:54.416Z,1.67
2023-04-23T17:16:21.270Z,1.70
2023-04-23T17:18:48.691Z,1.33
2023-04-23T17:21:15.352Z,1.60
2023-04-23T17:23:42.504Z,1.38
2023-04-23T17:26:09.085Z,1.52
2023-04-23T17:28:36.456Z,1.67
2023-04-23T17:31:03.457Z,1.60
2023-04-23T17:33:31.132Z,1.70
2023-04-23T17:35:57.785Z,2.17
2023-04-23T17:38:26.152Z,2.28
2023-04-23T17:40:53.245Z,2.00
2023-04-23T17:43:20.860Z,2.08
2023-04-23T17:45:48.869Z,2.13
2023-04-23T17:48:15.905Z,1.98
2023-04-23T17:50:43.836Z,2.40
2023-04-23T17:53:10.652Z,2.03
2023-04-23T17:55:37.727Z,2.58
2023-04-23T17:58:07.477Z,2.03
2023-04-23T18:00:38.945Z,2.40
2023-04-23T18:03:06.305Z,3.28
2023-04-23T18:05:33.549Z,3.20
2023-04-23T18:08:00.255Z,2.30
2023-04-23T18:10:29.570Z,2.65
2023-04-23T18:12:56.746Z,2.78
2023-04-23T18:15:25.904Z,2.88
2023-04-23T18:17:55.554Z,2.60
2023-04-23T18:20:25.103Z,3.47
2023-04-23T18:22:55.970Z,3.65
2023-04-23T18:25:25.013Z,3.33
2023-04-23T18:27:52.091Z,2.88
2023-04-23T18:30:23.507Z,3.30
2023-04-23T18:32:59.696Z,2.90
2023-04-23T18:35:26.442Z,3.47
2023-04-23T18:38:04.883Z,3.00
2023-04-23T18:40:34.958Z,3.65
2023-04-23T18:43:01.969Z,3.40
2023-04-23T18:45:29.462Z,3.70
2023-04-23T18:48:34.869Z,3.08
2023-04-23T18:51:13.137Z,2.95
2023-04-23T18:53:40.466Z,3.15
2023-04-23T18:56:07.146Z,3.35
2023-04-23T18:58:34.356Z,3.45
2023-04-23T19:01:01.126Z,3.42
2023-04-23T19:03:29.512Z,3.35
2023-04-23T19:05:56.293Z,3.40
2023-04-23T19:08:28.733Z,3.50
2023-04-23T19:10:56.392Z,4.90
2023-04-23T19:13:23.689Z,3.55
2023-04-23T19:15:50.564Z,3.55
2023-04-23T19:18:18.812Z,2.95
2023-04-23T19:20:45.800Z,2.70
2023-04-23T19:23:13.204Z,2.95
2023-04-23T19:25:39.871Z,2.60
2023-04-23T19:28:07.057Z,2.33
2023-04-23T19:30:33.829Z,3.03
2023-04-23T19:33:01.173Z,2.90
2023-04-23T19:35:27.785Z,3.08
2023-04-23T19:37:54.709Z,3.00
2023-04-23T19:40:21.990Z,2.58
2023-04-23T19:42:48.869Z,2.53
2023-04-23T19:45:18.042Z,2.75
2023-04-23T19:47:44.721Z,2.42
2023-04-23T19:50:14.160Z,3.70
2023-04-23T19:52:41.256Z,4.78
2023-04-23T19:55:09.143Z,5.18
2023-04-23T19:57:36.941Z,3.00
2023-04-23T20:00:07.354Z,4.63
2023-04-23T20:02:35.342Z,2.40
2023-04-23T20:05:03.111Z,2.67
2023-04-23T20:07:30.035Z,2.33
2023-04-23T20:09:57.254Z,2.08
2023-04-23T20:12:24.481Z,1.85
2023-04-23T20:14:52.076Z,1.70
2023-04-23T20:17:18.643Z,1.80
2023-04-23T20:19:45.875Z,3.03
2023-04-23T20:22:12.450Z,2.00
2023-04-23T20:24:40.764Z,2.30
2023-04-23T20:27:07.375Z,2.17
2023-04-23T20:29:34.699Z,2.78
